sensor_id;sensor_type;location;lat;lon;timestamp;P1;durP1;ratioP1;P2;durP2;ratioP2
59310;SDS011;45078;51.654;21.250;2022-09-09T00:00:46;12.23;;;5.05;;
59310;SDS011;45078;51.654;21.250;2022-09-09T00:06:23;14.38;;;5.80;;
59310;SDS011;45078;51.654;21.250;2022-09-09T00:11:43;12.82;;;5.45;;
59310;SDS011;45078;51.654;21.250;2022-09-09T00:14:37;17.45;;;5.18;;
59310;SDS011;45078;51.654;21.250;2022-09-09T00:17:08;11.45;;;5.10;;
59310;SDS011;45078;51.654;21.250;2022-09-09T00:22:30;13.57;;;4.68;;
59310;SDS011;45078;51.654;21.250;2022-09-09T00:25:19;13.77;;;6.25;;
59310;SDS011;45078;51.654;21.250;2022-09-09T00:27:48;13.07;;;5.18;;
59310;SDS011;45078;51.654;21.250;2022-09-09T00:32:50;11.23;;;6.03;;
59310;SDS011;45078;51.654;21.250;2022-09-09T00:35:29;11.88;;;5.40;;
59310;SDS011;45078;51.654;21.250;2022-09-09T00:38:03;10.50;;;5.75;;
59310;SDS011;45078;51.654;21.250;2022-09-09T00:40:53;15.27;;;5.90;;
59310;SDS011;45078;51.654;21.250;2022-09-09T00:43:29;12.82;;;6.18;;
59310;SDS011;45078;51.654;21.250;2022-09-09T01:05:10;7.85;;;5.05;;
59310;SDS011;45078;51.654;21.250;2022-09-09T01:07:44;10.77;;;6.03;;
59310;SDS011;45078;51.654;21.250;2022-09-09T01:13:28;13.18;;;5.93;;
59310;SDS011;45078;51.654;21.250;2022-09-09T01:15:59;10.27;;;5.32;;
59310;SDS011;45078;51.654;21.250;2022-09-09T01:18:29;11.43;;;5.75;;
59310;SDS011;45078;51.654;21.250;2022-09-09T01:26:37;9.73;;;5.32;;
59310;SDS011;45078;51.654;21.250;2022-09-09T01:29:08;16.33;;;6.70;;
59310;SDS011;45078;51.654;21.250;2022-09-09T01:31:38;14.52;;;6.97;;
59310;SDS011;45078;51.654;21.250;2022-09-09T01:34:25;13.27;;;5.55;;
59310;SDS011;45078;51.654;21.250;2022-09-09T01:37:02;11.32;;;6.22;;
59310;SDS011;45078;51.654;21.250;2022-09-09T01:39:33;14.52;;;7.28;;
59310;SDS011;45078;51.654;21.250;2022-09-09T01:42:00;11.85;;;5.78;;
59310;SDS011;45078;51.654;21.250;2022-09-09T01:44:27;12.25;;;6.18;;
59310;SDS011;45078;51.654;21.250;2022-09-09T01:46:54;9.35;;;5.35;;
59310;SDS011;45078;51.654;21.250;2022-09-09T01:49:20;14.13;;;7.15;;
59310;SDS011;45078;51.654;21.250;2022-09-09T01:51:48;10.57;;;5.90;;
59310;SDS011;45078;51.654;21.250;2022-09-09T01:54:17;13.07;;;6.68;;
59310;SDS011;45078;51.654;21.250;2022-09-09T02:02:10;14.18;;;6.80;;
59310;SDS011;45078;51.654;21.250;2022-09-09T02:04:54;12.15;;;5.88;;
59310;SDS011;45078;51.654;21.250;2022-09-09T02:13:11;12.63;;;6.20;;
59310;SDS011;45078;51.654;21.250;2022-09-09T02:15:45;12.35;;;6.18;;
59310;SDS011;45078;51.654;21.250;2022-09-09T02:18:33;9.13;;;4.97;;
59310;SDS011;45078;51.654;21.250;2022-09-09T02:21:04;9.88;;;4.70;;
59310;SDS011;45078;51.654;21.250;2022-09-09T02:23:31;10.30;;;4.68;;
59310;SDS011;45078;51.654;21.250;2022-09-09T02:25:59;7.50;;;4.95;;
59310;SDS011;45078;51.654;21.250;2022-09-09T02:28:27;7.63;;;4.28;;
59310;SDS011;45078;51.654;21.250;2022-09-09T02:30:55;8.35;;;4.78;;
59310;SDS011;45078;51.654;21.250;2022-09-09T02:33:25;7.07;;;4.38;;
59310;SDS011;45078;51.654;21.250;2022-09-09T02:35:55;11.93;;;5.63;;
59310;SDS011;45078;51.654;21.250;2022-09-09T02:38:27;7.22;;;4.40;;
59310;SDS011;45078;51.654;21.250;2022-09-09T02:40:56;14.00;;;6.18;;
59310;SDS011;45078;51.654;21.250;2022-09-09T02:43:24;12.05;;;5.25;;
59310;SDS011;45078;51.654;21.250;2022-09-09T02:48:43;7.20;;;4.28;;
59310;SDS011;45078;51.654;21.250;2022-09-09T02:54:37;8.30;;;4.40;;
59310;SDS011;45078;51.654;21.250;2022-09-09T02:59:41;15.93;;;4.70;;
59310;SDS011;45078;51.654;21.250;2022-09-09T03:02:09;7.50;;;4.13;;
59310;SDS011;45078;51.654;21.250;2022-09-09T03:04:36;9.13;;;4.57;;
59310;SDS011;45078;51.654;21.250;2022-09-09T03:07:03;8.73;;;4.50;;
59310;SDS011;45078;51.654;21.250;2022-09-09T03:09:29;9.90;;;4.90;;
59310;SDS011;45078;51.654;21.250;2022-09-09T03:11:56;7.18;;;4.03;;
59310;SDS011;45078;51.654;21.250;2022-09-09T03:14:22;8.18;;;5.13;;
59310;SDS011;45078;51.654;21.250;2022-09-09T03:16:53;10.35;;;4.55;;
59310;SDS011;45078;51.654;21.250;2022-09-09T03:19:21;9.38;;;5.22;;
59310;SDS011;45078;51.654;21.250;2022-09-09T03:21:47;7.00;;;4.68;;
59310;SDS011;45078;51.654;21.250;2022-09-09T03:24:14;8.35;;;4.95;;
59310;SDS011;45078;51.654;21.250;2022-09-09T03:26:41;7.80;;;4.63;;
59310;SDS011;45078;51.654;21.250;2022-09-09T03:29:10;9.70;;;4.97;;
59310;SDS011;45078;51.654;21.250;2022-09-09T03:31:37;9.05;;;4.88;;
59310;SDS011;45078;51.654;21.250;2022-09-09T03:34:03;7.05;;;4.60;;
59310;SDS011;45078;51.654;21.250;2022-09-09T03:36:30;9.20;;;5.20;;
59310;SDS011;45078;51.654;21.250;2022-09-09T03:38:56;7.60;;;4.68;;
59310;SDS011;45078;51.654;21.250;2022-09-09T03:41:23;8.73;;;4.95;;
59310;SDS011;45078;51.654;21.250;2022-09-09T03:43:50;6.72;;;4.22;;
59310;SDS011;45078;51.654;21.250;2022-09-09T03:46:16;7.22;;;4.18;;
59310;SDS011;45078;51.654;21.250;2022-09-09T03:48:43;11.25;;;5.07;;
59310;SDS011;45078;51.654;21.250;2022-09-09T03:51:09;11.80;;;5.15;;
59310;SDS011;45078;51.654;21.250;2022-09-09T03:53:35;10.52;;;5.53;;
59310;SDS011;45078;51.654;21.250;2022-09-09T03:56:03;8.95;;;5.53;;
59310;SDS011;45078;51.654;21.250;2022-09-09T03:58:32;9.38;;;5.20;;
59310;SDS011;45078;51.654;21.250;2022-09-09T04:03:26;9.63;;;5.00;;
59310;SDS011;45078;51.654;21.250;2022-09-09T04:05:52;8.88;;;4.78;;
59310;SDS011;45078;51.654;21.250;2022-09-09T04:08:19;10.48;;;5.85;;
59310;SDS011;45078;51.654;21.250;2022-09-09T04:10:49;9.55;;;5.32;;
59310;SDS011;45078;51.654;21.250;2022-09-09T04:13:15;9.60;;;5.50;;
59310;SDS011;45078;51.654;21.250;2022-09-09T04:15:42;10.02;;;5.35;;
59310;SDS011;45078;51.654;21.250;2022-09-09T04:18:10;10.10;;;6.07;;
59310;SDS011;45078;51.654;21.250;2022-09-09T04:20:37;8.80;;;5.45;;
59310;SDS011;45078;51.654;21.250;2022-09-09T04:23:03;9.63;;;5.68;;
59310;SDS011;45078;51.654;21.250;2022-09-09T04:25:29;11.48;;;6.63;;
59310;SDS011;45078;51.654;21.250;2022-09-09T04:27:55;14.38;;;6.15;;
59310;SDS011;45078;51.654;21.250;2022-09-09T04:30:22;11.50;;;5.70;;
59310;SDS011;45078;51.654;21.250;2022-09-09T04:32:49;10.05;;;6.43;;
59310;SDS011;45078;51.654;21.250;2022-09-09T04:35:15;10.75;;;6.18;;
59310;SDS011;45078;51.654;21.250;2022-09-09T04:37:41;11.50;;;5.65;;
59310;SDS011;45078;51.654;21.250;2022-09-09T04:40:07;12.35;;;6.18;;
59310;SDS011;45078;51.654;21.250;2022-09-09T04:42:38;13.70;;;6.57;;
59310;SDS011;45078;51.654;21.250;2022-09-09T04:45:05;14.45;;;7.22;;
59310;SDS011;45078;51.654;21.250;2022-09-09T04:47:32;14.88;;;7.35;;
59310;SDS011;45078;51.654;21.250;2022-09-09T04:50:00;10.75;;;6.47;;
59310;SDS011;45078;51.654;21.250;2022-09-09T04:52:26;11.60;;;6.32;;
59310;SDS011;45078;51.654;21.250;2022-09-09T04:54:51;14.57;;;7.57;;
59310;SDS011;45078;51.654;21.250;2022-09-09T04:57:19;16.92;;;8.93;;
59310;SDS011;45078;51.654;21.250;2022-09-09T04:59:45;12.30;;;7.45;;
59310;SDS011;45078;51.654;21.250;2022-09-09T05:02:11;12.07;;;6.95;;
59310;SDS011;45078;51.654;21.250;2022-09-09T05:04:37;11.20;;;6.38;;
59310;SDS011;45078;51.654;21.250;2022-09-09T05:07:02;12.35;;;6.82;;
59310;SDS011;45078;51.654;21.250;2022-09-09T05:09:28;11.57;;;5.93;;
59310;SDS011;45078;51.654;21.250;2022-09-09T05:11:55;13.05;;;6.93;;
59310;SDS011;45078;51.654;21.250;2022-09-09T05:14:21;11.80;;;6.63;;
59310;SDS011;45078;51.654;21.250;2022-09-09T05:16:47;14.07;;;7.43;;
59310;SDS011;45078;51.654;21.250;2022-09-09T05:19:15;12.43;;;7.03;;
59310;SDS011;45078;51.654;21.250;2022-09-09T05:21:44;12.80;;;6.82;;
59310;SDS011;45078;51.654;21.250;2022-09-09T05:24:10;12.57;;;6.97;;
59310;SDS011;45078;51.654;21.250;2022-09-09T05:26:36;11.93;;;6.20;;
59310;SDS011;45078;51.654;21.250;2022-09-09T05:29:02;14.07;;;7.18;;
59310;SDS011;45078;51.654;21.250;2022-09-09T05:31:29;12.98;;;6.60;;
59310;SDS011;45078;51.654;21.250;2022-09-09T05:33:55;12.60;;;6.57;;
59310;SDS011;45078;51.654;21.250;2022-09-09T05:36:22;13.10;;;6.95;;
59310;SDS011;45078;51.654;21.250;2022-09-09T05:38:48;14.73;;;6.78;;
59310;SDS011;45078;51.654;21.250;2022-09-09T05:41:15;14.43;;;6.68;;
59310;SDS011;45078;51.654;21.250;2022-09-09T05:43:42;14.88;;;7.53;;
59310;SDS011;45078;51.654;21.250;2022-09-09T05:51:12;10.23;;;5.70;;
59310;SDS011;45078;51.654;21.250;2022-09-09T05:53:43;14.25;;;6.90;;
59310;SDS011;45078;51.654;21.250;2022-09-09T05:56:43;12.40;;;6.65;;
59310;SDS011;45078;51.654;21.250;2022-09-09T05:59:02;11.30;;;6.38;;
59310;SDS011;45078;51.654;21.250;2022-09-09T06:01:31;12.20;;;6.35;;
59310;SDS011;45078;51.654;21.250;2022-09-09T06:03:59;15.52;;;7.53;;
59310;SDS011;45078;51.654;21.250;2022-09-09T06:06:26;17.77;;;6.68;;
59310;SDS011;45078;51.654;21.250;2022-09-09T06:08:56;14.57;;;7.43;;
59310;SDS011;45078;51.654;21.250;2022-09-09T06:11:24;14.15;;;7.35;;
59310;SDS011;45078;51.654;21.250;2022-09-09T06:13:52;13.20;;;7.18;;
59310;SDS011;45078;51.654;21.250;2022-09-09T06:16:20;14.88;;;7.55;;
59310;SDS011;45078;51.654;21.250;2022-09-09T06:18:54;15.02;;;6.65;;
59310;SDS011;45078;51.654;21.250;2022-09-09T06:21:22;10.45;;;6.15;;
59310;SDS011;45078;51.654;21.250;2022-09-09T06:23:50;11.57;;;6.43;;
59310;SDS011;45078;51.654;21.250;2022-09-09T06:26:22;13.57;;;7.35;;
59310;SDS011;45078;51.654;21.250;2022-09-09T06:28:50;14.20;;;7.65;;
59310;SDS011;45078;51.654;21.250;2022-09-09T06:31:19;12.05;;;6.75;;
59310;SDS011;45078;51.654;21.250;2022-09-09T06:33:52;12.93;;;7.30;;
59310;SDS011;45078;51.654;21.250;2022-09-09T06:36:23;13.73;;;6.85;;
59310;SDS011;45078;51.654;21.250;2022-09-09T06:38:57;18.30;;;7.75;;
59310;SDS011;45078;51.654;21.250;2022-09-09T06:41:24;14.60;;;7.45;;
59310;SDS011;45078;51.654;21.250;2022-09-09T06:43:52;18.25;;;6.97;;
59310;SDS011;45078;51.654;21.250;2022-09-09T06:46:19;14.93;;;7.75;;
59310;SDS011;45078;51.654;21.250;2022-09-09T06:48:53;18.90;;;9.20;;
59310;SDS011;45078;51.654;21.250;2022-09-09T06:51:24;16.58;;;8.45;;
59310;SDS011;45078;51.654;21.250;2022-09-09T06:53:53;19.48;;;8.35;;
59310;SDS011;45078;51.654;21.250;2022-09-09T06:58:49;17.52;;;7.72;;
59310;SDS011;45078;51.654;21.250;2022-09-09T07:01:17;19.48;;;8.63;;
59310;SDS011;45078;51.654;21.250;2022-09-09T07:03:46;19.40;;;7.90;;
59310;SDS011;45078;51.654;21.250;2022-09-09T07:06:17;15.80;;;7.32;;
59310;SDS011;45078;51.654;21.250;2022-09-09T07:08:49;20.48;;;7.75;;
59310;SDS011;45078;51.654;21.250;2022-09-09T07:11:16;18.88;;;8.30;;
59310;SDS011;45078;51.654;21.250;2022-09-09T07:13:43;23.13;;;8.38;;
59310;SDS011;45078;51.654;21.250;2022-09-09T07:16:09;16.02;;;7.78;;
59310;SDS011;45078;51.654;21.250;2022-09-09T07:18:38;20.13;;;8.48;;
59310;SDS011;45078;51.654;21.250;2022-09-09T07:21:05;19.08;;;8.90;;
59310;SDS011;45078;51.654;21.250;2022-09-09T07:23:31;18.98;;;8.25;;
59310;SDS011;45078;51.654;21.250;2022-09-09T07:25:57;18.05;;;8.80;;
59310;SDS011;45078;51.654;21.250;2022-09-09T07:28:24;20.55;;;9.27;;
59310;SDS011;45078;51.654;21.250;2022-09-09T07:30:58;20.10;;;9.48;;
59310;SDS011;45078;51.654;21.250;2022-09-09T07:33:29;19.95;;;9.10;;
59310;SDS011;45078;51.654;21.250;2022-09-09T07:36:10;20.70;;;9.02;;
59310;SDS011;45078;51.654;21.250;2022-09-09T07:38:43;21.90;;;9.65;;
59310;SDS011;45078;51.654;21.250;2022-09-09T07:41:15;19.20;;;8.13;;
59310;SDS011;45078;51.654;21.250;2022-09-09T07:43:43;15.75;;;8.70;;
59310;SDS011;45078;51.654;21.250;2022-09-09T07:46:11;21.20;;;8.73;;
59310;SDS011;45078;51.654;21.250;2022-09-09T07:48:38;19.92;;;9.32;;
59310;SDS011;45078;51.654;21.250;2022-09-09T07:51:13;23.60;;;9.23;;
59310;SDS011;45078;51.654;21.250;2022-09-09T07:53:43;23.45;;;9.32;;
59310;SDS011;45078;51.654;21.250;2022-09-09T07:56:11;22.55;;;9.15;;
59310;SDS011;45078;51.654;21.250;2022-09-09T07:58:39;22.25;;;9.00;;
59310;SDS011;45078;51.654;21.250;2022-09-09T08:01:13;19.98;;;8.38;;
59310;SDS011;45078;51.654;21.250;2022-09-09T08:03:52;18.92;;;8.20;;
59310;SDS011;45078;51.654;21.250;2022-09-09T08:08:49;16.67;;;7.47;;
59310;SDS011;45078;51.654;21.250;2022-09-09T08:11:19;21.20;;;9.05;;
59310;SDS011;45078;51.654;21.250;2022-09-09T08:13:48;20.35;;;9.30;;
59310;SDS011;45078;51.654;21.250;2022-09-09T08:16:20;24.02;;;8.27;;
59310;SDS011;45078;51.654;21.250;2022-09-09T08:18:51;23.13;;;10.25;;
59310;SDS011;45078;51.654;21.250;2022-09-09T08:21:20;23.27;;;9.25;;
59310;SDS011;45078;51.654;21.250;2022-09-09T08:23:49;20.13;;;9.38;;
59310;SDS011;45078;51.654;21.250;2022-09-09T08:28:48;28.55;;;10.77;;
59310;SDS011;45078;51.654;21.250;2022-09-09T08:31:20;28.02;;;10.95;;
59310;SDS011;45078;51.654;21.250;2022-09-09T08:33:50;22.83;;;9.45;;
59310;SDS011;45078;51.654;21.250;2022-09-09T08:36:17;22.90;;;10.07;;
59310;SDS011;45078;51.654;21.250;2022-09-09T08:38:51;26.23;;;10.70;;
59310;SDS011;45078;51.654;21.250;2022-09-09T08:58:19;16.20;;;8.00;;
59310;SDS011;45078;51.654;21.250;2022-09-09T09:12:00;18.75;;;8.57;;
59310;SDS011;45078;51.654;21.250;2022-09-09T09:14:29;16.48;;;8.25;;
59310;SDS011;45078;51.654;21.250;2022-09-09T09:19:44;20.15;;;8.38;;
59310;SDS011;45078;51.654;21.250;2022-09-09T09:22:14;17.45;;;8.25;;
59310;SDS011;45078;51.654;21.250;2022-09-09T09:27:50;19.60;;;8.52;;
59310;SDS011;45078;51.654;21.250;2022-09-09T09:30:26;17.40;;;8.05;;
59310;SDS011;45078;51.654;21.250;2022-09-09T09:33:01;18.40;;;9.00;;
59310;SDS011;45078;51.654;21.250;2022-09-09T09:35:31;19.08;;;9.18;;
59310;SDS011;45078;51.654;21.250;2022-09-09T09:37:57;19.10;;;8.88;;
59310;SDS011;45078;51.654;21.250;2022-09-09T09:40:26;18.63;;;8.88;;
59310;SDS011;45078;51.654;21.250;2022-09-09T09:42:58;12.50;;;7.68;;
59310;SDS011;45078;51.654;21.250;2022-09-09T09:45:40;15.25;;;7.85;;
59310;SDS011;45078;51.654;21.250;2022-09-09T09:48:10;17.90;;;7.20;;
59310;SDS011;45078;51.654;21.250;2022-09-09T09:53:25;18.58;;;8.13;;
59310;SDS011;45078;51.654;21.250;2022-09-09T09:56:05;15.43;;;8.13;;
59310;SDS011;45078;51.654;21.250;2022-09-09T09:58:36;13.93;;;6.72;;
59310;SDS011;45078;51.654;21.250;2022-09-09T10:01:31;14.27;;;6.70;;
59310;SDS011;45078;51.654;21.250;2022-09-09T10:06:31;15.63;;;7.32;;
59310;SDS011;45078;51.654;21.250;2022-09-09T10:08:59;15.35;;;7.95;;
59310;SDS011;45078;51.654;21.250;2022-09-09T10:22:54;14.15;;;6.30;;
59310;SDS011;45078;51.654;21.250;2022-09-09T10:43:37;10.98;;;6.50;;
59310;SDS011;45078;51.654;21.250;2022-09-09T10:57:27;13.27;;;6.35;;
59310;SDS011;45078;51.654;21.250;2022-09-09T11:00:04;13.05;;;7.30;;
59310;SDS011;45078;51.654;21.250;2022-09-09T11:02:33;16.05;;;7.13;;
59310;SDS011;45078;51.654;21.250;2022-09-09T11:10:17;14.13;;;6.20;;
59310;SDS011;45078;51.654;21.250;2022-09-09T11:12:59;12.32;;;6.60;;
59310;SDS011;45078;51.654;21.250;2022-09-09T11:15:44;13.20;;;6.95;;
59310;SDS011;45078;51.654;21.250;2022-09-09T11:18:19;14.48;;;6.65;;
59310;SDS011;45078;51.654;21.250;2022-09-09T11:23:42;12.90;;;6.30;;
59310;SDS011;45078;51.654;21.250;2022-09-09T11:26:14;10.65;;;6.68;;
59310;SDS011;45078;51.654;21.250;2022-09-09T11:34:02;13.07;;;7.00;;
59310;SDS011;45078;51.654;21.250;2022-09-09T11:42:29;14.90;;;7.47;;
59310;SDS011;45078;51.654;21.250;2022-09-09T11:44:55;12.52;;;6.65;;
59310;SDS011;45078;51.654;21.250;2022-09-09T11:47:24;15.57;;;6.60;;
59310;SDS011;45078;51.654;21.250;2022-09-09T11:52:42;13.60;;;7.05;;
59310;SDS011;45078;51.654;21.250;2022-09-09T11:55:32;13.07;;;7.00;;
59310;SDS011;45078;51.654;21.250;2022-09-09T12:00:38;16.30;;;7.07;;
59310;SDS011;45078;51.654;21.250;2022-09-09T12:03:31;12.57;;;6.78;;
59310;SDS011;45078;51.654;21.250;2022-09-09T12:06:15;11.68;;;7.00;;
59310;SDS011;45078;51.654;21.250;2022-09-09T12:09:22;16.33;;;8.43;;
59310;SDS011;45078;51.654;21.250;2022-09-09T12:11:52;14.90;;;7.03;;
59310;SDS011;45078;51.654;21.250;2022-09-09T12:14:38;13.18;;;6.63;;
59310;SDS011;45078;51.654;21.250;2022-09-09T12:19:47;14.27;;;7.25;;
59310;SDS011;45078;51.654;21.250;2022-09-09T12:25:27;16.33;;;7.85;;
59310;SDS011;45078;51.654;21.250;2022-09-09T12:28:19;13.90;;;7.30;;
59310;SDS011;45078;51.654;21.250;2022-09-09T12:31:14;21.77;;;10.73;;
59310;SDS011;45078;51.654;21.250;2022-09-09T12:33:43;16.15;;;8.80;;
59310;SDS011;45078;51.654;21.250;2022-09-09T12:36:14;13.55;;;7.47;;
59310;SDS011;45078;51.654;21.250;2022-09-09T12:38:43;15.15;;;7.82;;
59310;SDS011;45078;51.654;21.250;2022-09-09T12:41:27;18.33;;;8.13;;
59310;SDS011;45078;51.654;21.250;2022-09-09T12:44:08;26.05;;;10.75;;
59310;SDS011;45078;51.654;21.250;2022-09-09T12:46:41;24.38;;;11.23;;
59310;SDS011;45078;51.654;21.250;2022-09-09T12:54:32;21.80;;;11.07;;
59310;SDS011;45078;51.654;21.250;2022-09-09T12:57:02;25.90;;;9.90;;
59310;SDS011;45078;51.654;21.250;2022-09-09T12:59:36;21.77;;;10.82;;
59310;SDS011;45078;51.654;21.250;2022-09-09T13:02:26;21.45;;;10.57;;
59310;SDS011;45078;51.654;21.250;2022-09-09T13:04:51;27.35;;;11.73;;
59310;SDS011;45078;51.654;21.250;2022-09-09T13:07:19;29.00;;;12.52;;
59310;SDS011;45078;51.654;21.250;2022-09-09T13:09:47;21.50;;;11.15;;
59310;SDS011;45078;51.654;21.250;2022-09-09T13:12:21;20.13;;;9.32;;
59310;SDS011;45078;51.654;21.250;2022-09-09T13:14:48;27.02;;;12.35;;
59310;SDS011;45078;51.654;21.250;2022-09-09T13:17:19;24.73;;;10.85;;
59310;SDS011;45078;51.654;21.250;2022-09-09T13:19:50;29.92;;;11.23;;
59310;SDS011;45078;51.654;21.250;2022-09-09T13:38:28;25.83;;;11.93;;
59310;SDS011;45078;51.654;21.250;2022-09-09T13:40:57;28.45;;;10.95;;
59310;SDS011;45078;51.654;21.250;2022-09-09T13:43:28;27.45;;;12.57;;
59310;SDS011;45078;51.654;21.250;2022-09-09T13:45:57;23.77;;;11.82;;
59310;SDS011;45078;51.654;21.250;2022-09-09T13:48:27;29.25;;;13.77;;
59310;SDS011;45078;51.654;21.250;2022-09-09T13:50:56;29.08;;;12.55;;
59310;SDS011;45078;51.654;21.250;2022-09-09T13:53:29;27.23;;;12.75;;
59310;SDS011;45078;51.654;21.250;2022-09-09T13:55:55;38.67;;;13.70;;
59310;SDS011;45078;51.654;21.250;2022-09-09T13:58:22;37.92;;;13.80;;
59310;SDS011;45078;51.654;21.250;2022-09-09T14:00:50;26.55;;;12.93;;
59310;SDS011;45078;51.654;21.250;2022-09-09T14:03:19;35.75;;;14.48;;
59310;SDS011;45078;51.654;21.250;2022-09-09T14:05:46;30.20;;;12.40;;
59310;SDS011;45078;51.654;21.250;2022-09-09T14:08:17;25.55;;;12.30;;
59310;SDS011;45078;51.654;21.250;2022-09-09T14:10:47;29.15;;;13.05;;
59310;SDS011;45078;51.654;21.250;2022-09-09T14:13:14;28.95;;;13.77;;
59310;SDS011;45078;51.654;21.250;2022-09-09T14:15:40;28.10;;;12.95;;
59310;SDS011;45078;51.654;21.250;2022-09-09T14:18:09;31.88;;;14.27;;
59310;SDS011;45078;51.654;21.250;2022-09-09T14:20:37;28.58;;;12.98;;
59310;SDS011;45078;51.654;21.250;2022-09-09T14:23:02;32.30;;;12.90;;
59310;SDS011;45078;51.654;21.250;2022-09-09T14:25:28;29.42;;;11.93;;
59310;SDS011;45078;51.654;21.250;2022-09-09T14:27:54;34.17;;;13.77;;
59310;SDS011;45078;51.654;21.250;2022-09-09T14:30:21;28.50;;;13.00;;
59310;SDS011;45078;51.654;21.250;2022-09-09T14:32:47;32.10;;;12.00;;
59310;SDS011;45078;51.654;21.250;2022-09-09T14:35:13;27.77;;;13.90;;
59310;SDS011;45078;51.654;21.250;2022-09-09T14:37:39;33.25;;;13.30;;
59310;SDS011;45078;51.654;21.250;2022-09-09T14:40:04;27.13;;;11.88;;
59310;SDS011;45078;51.654;21.250;2022-09-09T14:42:31;29.77;;;11.98;;
59310;SDS011;45078;51.654;21.250;2022-09-09T14:44:57;28.75;;;12.65;;
59310;SDS011;45078;51.654;21.250;2022-09-09T14:47:22;32.50;;;13.27;;
59310;SDS011;45078;51.654;21.250;2022-09-09T14:49:51;30.08;;;13.10;;
59310;SDS011;45078;51.654;21.250;2022-09-09T14:52:18;32.40;;;13.20;;
59310;SDS011;45078;51.654;21.250;2022-09-09T14:54:44;30.98;;;12.90;;
59310;SDS011;45078;51.654;21.250;2022-09-09T14:57:10;35.35;;;13.60;;
59310;SDS011;45078;51.654;21.250;2022-09-09T14:59:35;43.80;;;14.55;;
59310;SDS011;45078;51.654;21.250;2022-09-09T15:02:01;31.58;;;14.05;;
59310;SDS011;45078;51.654;21.250;2022-09-09T15:04:29;31.15;;;12.63;;
59310;SDS011;45078;51.654;21.250;2022-09-09T15:06:55;30.05;;;13.73;;
59310;SDS011;45078;51.654;21.250;2022-09-09T15:09:21;33.33;;;12.32;;
59310;SDS011;45078;51.654;21.250;2022-09-09T15:11:47;28.05;;;13.10;;
59310;SDS011;45078;51.654;21.250;2022-09-09T15:14:13;30.92;;;12.32;;
59310;SDS011;45078;51.654;21.250;2022-09-09T15:16:39;32.00;;;14.57;;
59310;SDS011;45078;51.654;21.250;2022-09-09T15:19:05;42.45;;;14.00;;
59310;SDS011;45078;51.654;21.250;2022-09-09T15:21:32;37.42;;;14.68;;
59310;SDS011;45078;51.654;21.250;2022-09-09T15:24:00;30.75;;;13.13;;
59310;SDS011;45078;51.654;21.250;2022-09-09T15:26:27;35.60;;;14.20;;
59310;SDS011;45078;51.654;21.250;2022-09-09T15:28:53;48.15;;;14.65;;
59310;SDS011;45078;51.654;21.250;2022-09-09T15:31:20;30.27;;;13.75;;
59310;SDS011;45078;51.654;21.250;2022-09-09T15:33:48;31.77;;;13.30;;
59310;SDS011;45078;51.654;21.250;2022-09-09T15:38:54;37.25;;;13.73;;
59310;SDS011;45078;51.654;21.250;2022-09-09T15:41:21;32.95;;;13.73;;
59310;SDS011;45078;51.654;21.250;2022-09-09T15:43:49;30.23;;;14.27;;
59310;SDS011;45078;51.654;21.250;2022-09-09T15:48:42;29.83;;;14.10;;
59310;SDS011;45078;51.654;21.250;2022-09-09T15:51:09;34.08;;;13.93;;
59310;SDS011;45078;51.654;21.250;2022-09-09T15:53:36;31.50;;;13.80;;
59310;SDS011;45078;51.654;21.250;2022-09-09T15:56:04;32.85;;;13.77;;
59310;SDS011;45078;51.654;21.250;2022-09-09T15:58:34;45.42;;;15.85;;
59310;SDS011;45078;51.654;21.250;2022-09-09T16:03:33;36.75;;;15.15;;
59310;SDS011;45078;51.654;21.250;2022-09-09T16:06:00;41.25;;;16.23;;
59310;SDS011;45078;51.654;21.250;2022-09-09T16:08:32;38.03;;;15.77;;
59310;SDS011;45078;51.654;21.250;2022-09-09T16:13:34;38.72;;;14.52;;
59310;SDS011;45078;51.654;21.250;2022-09-09T16:16:01;43.30;;;15.73;;
59310;SDS011;45078;51.654;21.250;2022-09-09T16:18:38;42.90;;;14.07;;
59310;SDS011;45078;51.654;21.250;2022-09-09T16:21:06;33.80;;;13.82;;
59310;SDS011;45078;51.654;21.250;2022-09-09T16:23:33;40.17;;;16.08;;
59310;SDS011;45078;51.654;21.250;2022-09-09T16:26:00;34.28;;;13.93;;
59310;SDS011;45078;51.654;21.250;2022-09-09T16:28:26;43.15;;;14.32;;
59310;SDS011;45078;51.654;21.250;2022-09-09T16:30:52;52.15;;;17.98;;
59310;SDS011;45078;51.654;21.250;2022-09-09T16:33:18;43.90;;;15.85;;
59310;SDS011;45078;51.654;21.250;2022-09-09T16:35:45;43.15;;;15.77;;
59310;SDS011;45078;51.654;21.250;2022-09-09T16:38:11;46.88;;;17.30;;
59310;SDS011;45078;51.654;21.250;2022-09-09T16:40:37;50.08;;;18.10;;
59310;SDS011;45078;51.654;21.250;2022-09-09T16:43:04;51.13;;;16.00;;
59310;SDS011;45078;51.654;21.250;2022-09-09T16:45:30;42.70;;;15.68;;
59310;SDS011;45078;51.654;21.250;2022-09-09T16:47:57;39.22;;;15.45;;
59310;SDS011;45078;51.654;21.250;2022-09-09T16:50:25;42.28;;;15.13;;
59310;SDS011;45078;51.654;21.250;2022-09-09T16:52:52;30.52;;;13.57;;
59310;SDS011;45078;51.654;21.250;2022-09-09T16:55:18;40.60;;;15.27;;
59310;SDS011;45078;51.654;21.250;2022-09-09T16:57:47;43.88;;;16.42;;
59310;SDS011;45078;51.654;21.250;2022-09-09T17:00:15;50.40;;;16.77;;
59310;SDS011;45078;51.654;21.250;2022-09-09T17:02:42;42.72;;;15.60;;
59310;SDS011;45078;51.654;21.250;2022-09-09T17:05:08;58.90;;;17.65;;
59310;SDS011;45078;51.654;21.250;2022-09-09T17:07:34;48.33;;;17.73;;
59310;SDS011;45078;51.654;21.250;2022-09-09T17:10:01;43.13;;;15.95;;
59310;SDS011;45078;51.654;21.250;2022-09-09T17:12:27;39.53;;;14.45;;
59310;SDS011;45078;51.654;21.250;2022-09-09T17:14:52;44.70;;;16.73;;
59310;SDS011;45078;51.654;21.250;2022-09-09T17:17:20;44.97;;;16.23;;
59310;SDS011;45078;51.654;21.250;2022-09-09T17:19:46;38.47;;;15.07;;
59310;SDS011;45078;51.654;21.250;2022-09-09T17:22:12;36.95;;;16.23;;
59310;SDS011;45078;51.654;21.250;2022-09-09T17:24:38;36.13;;;16.23;;
59310;SDS011;45078;51.654;21.250;2022-09-09T17:27:05;37.42;;;15.65;;
59310;SDS011;45078;51.654;21.250;2022-09-09T17:29:31;38.42;;;13.70;;
59310;SDS011;45078;51.654;21.250;2022-09-09T17:31:57;33.20;;;14.70;;
59310;SDS011;45078;51.654;21.250;2022-09-09T17:34:23;34.92;;;12.95;;
59310;SDS011;45078;51.654;21.250;2022-09-09T17:36:50;41.88;;;16.10;;
59310;SDS011;45078;51.654;21.250;2022-09-09T17:39:16;38.38;;;15.45;;
59310;SDS011;45078;51.654;21.250;2022-09-09T17:41:42;40.92;;;14.60;;
59310;SDS011;45078;51.654;21.250;2022-09-09T17:44:08;39.40;;;14.52;;
59310;SDS011;45078;51.654;21.250;2022-09-09T17:46:36;38.95;;;15.20;;
59310;SDS011;45078;51.654;21.250;2022-09-09T17:49:09;37.03;;;14.10;;
59310;SDS011;45078;51.654;21.250;2022-09-09T17:51:40;39.65;;;14.98;;
59310;SDS011;45078;51.654;21.250;2022-09-09T17:54:08;48.42;;;15.93;;
59310;SDS011;45078;51.654;21.250;2022-09-09T17:56:38;32.42;;;14.80;;
59310;SDS011;45078;51.654;21.250;2022-09-09T17:59:06;35.25;;;13.93;;
59310;SDS011;45078;51.654;21.250;2022-09-09T18:01:35;33.08;;;15.05;;
59310;SDS011;45078;51.654;21.250;2022-09-09T18:04:04;43.30;;;15.18;;
59310;SDS011;45078;51.654;21.250;2022-09-09T18:06:35;30.30;;;12.65;;
59310;SDS011;45078;51.654;21.250;2022-09-09T18:09:04;28.73;;;12.77;;